sensor_id;sensor_type;location;lat;lon;timestamp;pressure;altitude;pressure_sealevel;temperature;humidity
76011;BME280;64701;43.536;1.478;2023-10-09T00:02:02;100226.41;;;19.38;40.81
76011;BME280;64701;43.536;1.478;2023-10-09T00:04:31;100219.16;;;19.27;42.32
76011;BME280;64701;43.536;1.478;2023-10-09T00:06:56;100223.34;;;19.23;41.36
76011;BME280;64701;43.536;1.478;2023-10-09T00:09:25;100218.44;;;19.20;40.67
76011;BME280;64701;43.536;1.478;2023-10-09T00:11:50;100228.81;;;19.16;41.33
76011;BME280;64701;43.536;1.478;2023-10-09T00:14:22;100226.34;;;19.14;40.63
76011;BME280;64701;43.536;1.478;2023-10-09T00:16:48;100223.91;;;19.13;40.87
76011;BME280;64701;43.536;1.478;2023-10-09T00:19:14;100225.19;;;19.10;41.16
76011;BME280;64701;43.536;1.478;2023-10-09T00:21:40;100222.72;;;19.09;40.65
76011;BME280;64701;43.536;1.478;2023-10-09T00:24:06;100228.56;;;19.06;41.06
76011;BME280;64701;43.536;1.478;2023-10-09T00:26:38;100220.75;;;19.04;40.53
76011;BME280;64701;43.536;1.478;2023-10-09T00:29:08;100224.94;;;19.00;41.00
76011;BME280;64701;43.536;1.478;2023-10-09T00:31:40;100218.16;;;18.98;40.80
76011;BME280;64701;43.536;1.478;2023-10-09T00:34:06;100222.91;;;18.96;40.66
76011;BME280;64701;43.536;1.478;2023-10-09T00:36:31;100220.09;;;18.91;41.40
76011;BME280;64701;43.536;1.478;2023-10-09T00:38:58;100219.75;;;18.87;41.06
76011;BME280;64701;43.536;1.478;2023-10-09T00:41:26;100221.84;;;18.85;41.10
76011;BME280;64701;43.536;1.478;2023-10-09T00:43:54;100227.69;;;18.82;41.55
76011;BME280;64701;43.536;1.478;2023-10-09T00:46:24;100222.41;;;18.75;42.80
76011;BME280;64701;43.536;1.478;2023-10-09T00:48:51;100220.63;;;18.69;41.63
76011;BME280;64701;43.536;1.478;2023-10-09T00:51:17;100221.16;;;18.60;43.14
76011;BME280;64701;43.536;1.478;2023-10-09T00:53:53;100217.28;;;18.56;42.64
76011;BME280;64701;43.536;1.478;2023-10-09T00:56:19;100224.56;;;18.49;42.87
76011;BME280;64701;43.536;1.478;2023-10-09T00:58:51;100221.53;;;18.45;42.64
76011;BME280;64701;43.536;1.478;2023-10-09T01:01:39;100221.16;;;18.42;43.25
76011;BME280;64701;43.536;1.478;2023-10-09T01:04:05;100224.38;;;18.32;44.43
76011;BME280;64701;43.536;1.478;2023-10-09T01:06:33;100224.59;;;18.30;43.17
76011;BME280;64701;43.536;1.478;2023-10-09T01:08:58;100223.41;;;18.26;44.74
76011;BME280;64701;43.536;1.478;2023-10-09T01:11:36;100222.81;;;18.24;43.15
76011;BME280;64701;43.536;1.478;2023-10-09T01:14:13;100223.28;;;18.21;44.75
76011;BME280;64701;43.536;1.478;2023-10-09T01:16:38;100220.19;;;18.18;44.85
76011;BME280;64701;43.536;1.478;2023-10-09T01:19:07;100218.19;;;18.13;44.47
76011;BME280;64701;43.536;1.478;2023-10-09T01:21:38;100213.31;;;18.10;43.48
76011;BME280;64701;43.536;1.478;2023-10-09T01:24:04;100218.06;;;18.08;43.36
76011;BME280;64701;43.536;1.478;2023-10-09T01:26:37;100221.97;;;18.06;43.69
76011;BME280;64701;43.536;1.478;2023-10-09T01:29:22;100219.41;;;17.99;44.71
76011;BME280;64701;43.536;1.478;2023-10-09T01:31:53;100219.22;;;17.94;44.64
76011;BME280;64701;43.536;1.478;2023-10-09T01:34:26;100221.34;;;17.92;44.55
76011;BME280;64701;43.536;1.478;2023-10-09T01:37:12;100220.13;;;17.88;45.04
76011;BME280;64701;43.536;1.478;2023-10-09T01:39:58;100217.91;;;17.85;44.23
76011;BME280;64701;43.536;1.478;2023-10-09T01:42:26;100217.13;;;17.78;44.41
76011;BME280;64701;43.536;1.478;2023-10-09T01:45:10;100216.53;;;17.76;45.02
76011;BME280;64701;43.536;1.478;2023-10-09T01:47:55;100212.50;;;17.67;45.29
76011;BME280;64701;43.536;1.478;2023-10-09T01:50:21;100215.03;;;17.62;46.65
76011;BME280;64701;43.536;1.478;2023-10-09T01:52:56;100210.38;;;17.50;46.65
76011;BME280;64701;43.536;1.478;2023-10-09T01:55:21;100212.28;;;17.43;46.97
76011;BME280;64701;43.536;1.478;2023-10-09T01:57:54;100204.66;;;17.40;46.19
76011;BME280;64701;43.536;1.478;2023-10-09T02:00:19;100208.41;;;17.39;46.37
76011;BME280;64701;43.536;1.478;2023-10-09T02:02:49;100212.13;;;17.38;46.17
76011;BME280;64701;43.536;1.478;2023-10-09T02:05:15;100200.59;;;17.38;45.63
76011;BME280;64701;43.536;1.478;2023-10-09T02:07:41;100214.81;;;17.38;45.70
76011;BME280;64701;43.536;1.478;2023-10-09T02:10:12;100210.47;;;17.37;46.19
76011;BME280;64701;43.536;1.478;2023-10-09T02:12:51;100207.19;;;17.35;45.70
76011;BME280;64701;43.536;1.478;2023-10-09T02:15:29;100209.72;;;17.30;46.25
76011;BME280;64701;43.536;1.478;2023-10-09T02:23:37;100212.22;;;17.25;46.53
76011;BME280;64701;43.536;1.478;2023-10-09T02:26:06;100211.63;;;17.23;47.83
76011;BME280;64701;43.536;1.478;2023-10-09T02:28:32;100218.00;;;17.22;46.74
76011;BME280;64701;43.536;1.478;2023-10-09T02:30:58;100217.41;;;17.20;46.53
76011;BME280;64701;43.536;1.478;2023-10-09T02:33:25;100219.47;;;17.18;46.58
76011;BME280;64701;43.536;1.478;2023-10-09T02:35:55;100220.75;;;17.16;46.60
76011;BME280;64701;43.536;1.478;2023-10-09T02:38:24;100219.94;;;17.15;46.64
76011;BME280;64701;43.536;1.478;2023-10-09T02:40:51;100218.28;;;17.14;46.78
76011;BME280;64701;43.536;1.478;2023-10-09T02:43:36;100223.63;;;17.14;46.77
76011;BME280;64701;43.536;1.478;2023-10-09T02:46:20;100225.69;;;17.12;46.61
76011;BME280;64701;43.536;1.478;2023-10-09T02:48:49;100222.84;;;17.07;48.06
76011;BME280;64701;43.536;1.478;2023-10-09T02:51:20;100223.06;;;17.05;46.95
76011;BME280;64701;43.536;1.478;2023-10-09T02:54:06;100222.47;;;17.03;47.29
76011;BME280;64701;43.536;1.478;2023-10-09T02:56:46;100229.91;;;17.01;47.39
76011;BME280;64701;43.536;1.478;2023-10-09T02:59:32;100233.59;;;17.00;47.27
76011;BME280;64701;43.536;1.478;2023-10-09T03:01:57;100224.16;;;16.98;47.69
76011;BME280;64701;43.536;1.478;2023-10-09T03:04:27;100236.09;;;16.95;47.87
76011;BME280;64701;43.536;1.478;2023-10-09T03:06:55;100233.91;;;16.86;49.91
76011;BME280;64701;43.536;1.478;2023-10-09T03:09:22;100237.00;;;16.83;48.99
76011;BME280;64701;43.536;1.478;2023-10-09T03:11:54;100239.53;;;16.71;51.59
76011;BME280;64701;43.536;1.478;2023-10-09T03:14:20;100234.88;;;16.60;52.09
76011;BME280;64701;43.536;1.478;2023-10-09T03:16:46;100234.88;;;16.53;50.37
76011;BME280;64701;43.536;1.478;2023-10-09T03:19:13;100241.25;;;16.52;49.64
76011;BME280;64701;43.536;1.478;2023-10-09T03:21:39;100237.19;;;16.43;53.19
76011;BME280;64701;43.536;1.478;2023-10-09T03:24:04;100240.91;;;16.36;52.39
76011;BME280;64701;43.536;1.478;2023-10-09T03:26:30;100241.72;;;16.36;52.14
76011;BME280;64701;43.536;1.478;2023-10-09T03:28:56;100239.69;;;16.31;51.82
76011;BME280;64701;43.536;1.478;2023-10-09T03:31:21;100236.41;;;16.29;52.46
76011;BME280;64701;43.536;1.478;2023-10-09T03:33:47;100236.19;;;16.31;51.28
76011;BME280;64701;43.536;1.478;2023-10-09T03:36:12;100236.78;;;16.33;51.83
76011;BME280;64701;43.536;1.478;2023-10-09T03:38:40;100237.59;;;16.33;51.37
76011;BME280;64701;43.536;1.478;2023-10-09T03:41:07;100244.00;;;16.32;51.68
76011;BME280;64701;43.536;1.478;2023-10-09T03:43:37;100237.63;;;16.27;53.86
76011;BME280;64701;43.536;1.478;2023-10-09T03:46:05;100248.56;;;16.25;52.54
76011;BME280;64701;43.536;1.478;2023-10-09T03:48:30;100242.59;;;16.17;55.05
76011;BME280;64701;43.536;1.478;2023-10-09T03:51:01;100242.41;;;16.18;52.59
76011;BME280;64701;43.536;1.478;2023-10-09T03:53:38;100250.41;;;16.18;53.59
76011;BME280;64701;43.536;1.478;2023-10-09T03:56:06;100253.28;;;16.17;54.50
76011;BME280;64701;43.536;1.478;2023-10-09T03:58:41;100247.34;;;16.15;53.19
76011;BME280;64701;43.536;1.478;2023-10-09T04:01:10;100247.75;;;16.12;54.87
76011;BME280;64701;43.536;1.478;2023-10-09T04:03:42;100248.41;;;16.07;55.49
76011;BME280;64701;43.536;1.478;2023-10-09T04:06:07;100250.84;;;16.09;53.74
76011;BME280;64701;43.536;1.478;2023-10-09T04:08:35;100252.91;;;16.07;55.37
76011;BME280;64701;43.536;1.478;2023-10-09T04:11:00;100255.59;;;16.07;54.77
76011;BME280;64701;43.536;1.478;2023-10-09T04:13:31;100261.34;;;16.04;54.22
76011;BME280;64701;43.536;1.478;2023-10-09T04:16:00;100257.63;;;16.05;53.74
76011;BME280;64701;43.536;1.478;2023-10-09T04:18:34;100256.63;;;16.06;53.28
76011;BME280;64701;43.536;1.478;2023-10-09T04:21:03;100256.22;;;16.02;56.27
76011;BME280;64701;43.536;1.478;2023-10-09T04:23:44;100254.78;;;16.00;54.21
76011;BME280;64701;43.536;1.478;2023-10-09T04:26:25;100257.47;;;15.93;56.38
76011;BME280;64701;43.536;1.478;2023-10-09T04:28:51;100254.59;;;15.95;53.95
76011;BME280;64701;43.536;1.478;2023-10-09T04:31:20;100253.97;;;15.92;55.25
76011;BME280;64701;43.536;1.478;2023-10-09T04:33:47;100253.97;;;15.92;55.59
76011;BME280;64701;43.536;1.478;2023-10-09T04:36:39;100252.31;;;15.91;55.41
76011;BME280;64701;43.536;1.478;2023-10-09T04:39:21;100246.59;;;15.88;55.76
76011;BME280;64701;43.536;1.478;2023-10-09T04:41:56;100245.75;;;15.87;54.59
76011;BME280;64701;43.536;1.478;2023-10-09T04:44:56;100241.44;;;15.86;54.37
76011;BME280;64701;43.536;1.478;2023-10-09T04:47:45;100252.13;;;15.86;55.03
76011;BME280;64701;43.536;1.478;2023-10-09T04:50:32;100255.44;;;15.82;55.76
76011;BME280;64701;43.536;1.478;2023-10-09T04:52:57;100243.72;;;15.83;54.24
76011;BME280;64701;43.536;1.478;2023-10-09T04:55:38;100246.38;;;15.83;54.20
76011;BME280;64701;43.536;1.478;2023-10-09T04:58:04;100245.97;;;15.79;56.46
76011;BME280;64701;43.536;1.478;2023-10-09T05:00:32;100245.97;;;15.79;56.00
76011;BME280;64701;43.536;1.478;2023-10-09T05:02:58;100256.44;;;15.74;55.82
76011;BME280;64701;43.536;1.478;2023-10-09T05:05:29;100252.97;;;15.74;57.32
76011;BME280;64701;43.536;1.478;2023-10-09T05:10:48;100257.09;;;15.70;58.20
76011;BME280;64701;43.536;1.478;2023-10-09T05:13:26;100260.38;;;15.65;58.92
76011;BME280;64701;43.536;1.478;2023-10-09T05:16:04;100260.78;;;15.56;57.44
76011;BME280;64701;43.536;1.478;2023-10-09T05:18:29;100261.00;;;15.54;57.00
76011;BME280;64701;43.536;1.478;2023-10-09T05:21:01;100261.00;;;15.54;56.19
76011;BME280;64701;43.536;1.478;2023-10-09T05:23:46;100269.00;;;15.54;58.27
76011;BME280;64701;43.536;1.478;2023-10-09T05:26:34;100273.72;;;15.52;57.21
76011;BME280;64701;43.536;1.478;2023-10-09T05:29:19;100274.13;;;15.49;58.55
76011;BME280;64701;43.536;1.478;2023-10-09T05:31:49;100268.53;;;15.44;57.92
76011;BME280;64701;43.536;1.478;2023-10-09T05:34:30;100277.59;;;15.43;57.84
76011;BME280;64701;43.536;1.478;2023-10-09T05:37:19;100273.09;;;15.37;59.82
76011;BME280;64701;43.536;1.478;2023-10-09T05:39:51;100271.81;;;15.33;58.11
76011;BME280;64701;43.536;1.478;2023-10-09T05:42:25;100271.63;;;15.28;59.98
76011;BME280;64701;43.536;1.478;2023-10-09T05:45:10;100274.88;;;15.17;60.67
76011;BME280;64701;43.536;1.478;2023-10-09T05:47:54;100275.91;;;15.16;58.60
76011;BME280;64701;43.536;1.478;2023-10-09T05:50:42;100278.56;;;15.16;58.26
76011;BME280;64701;43.536;1.478;2023-10-09T05:53:26;100285.94;;;15.13;62.54
76011;BME280;64701;43.536;1.478;2023-10-09T05:56:11;100296.41;;;15.08;63.33
76011;BME280;64701;43.536;1.478;2023-10-09T05:58:56;100298.47;;;15.00;63.21
76011;BME280;64701;43.536;1.478;2023-10-09T06:01:39;100295.56;;;14.88;63.24
76011;BME280;64701;43.536;1.478;2023-10-09T06:04:23;100306.00;;;14.83;64.07
76011;BME280;64701;43.536;1.478;2023-10-09T06:07:09;100306.16;;;14.75;65.06
76011;BME280;64701;43.536;1.478;2023-10-09T06:09:38;100305.50;;;14.66;64.98
76011;BME280;64701;43.536;1.478;2023-10-09T06:12:21;100307.34;;;14.59;64.95
76011;BME280;64701;43.536;1.478;2023-10-09T06:14:58;100311.81;;;14.52;65.71
76011;BME280;64701;43.536;1.478;2023-10-09T06:17:43;100309.53;;;14.49;63.06
76011;BME280;64701;43.536;1.478;2023-10-09T06:20:09;100311.19;;;14.50;63.98
76011;BME280;64701;43.536;1.478;2023-10-09T06:22:55;100313.00;;;14.50;64.80
76011;BME280;64701;43.536;1.478;2023-10-09T06:25:23;100320.19;;;14.49;63.34
76011;BME280;64701;43.536;1.478;2023-10-09T06:27:57;100326.34;;;14.50;64.12
76011;BME280;64701;43.536;1.478;2023-10-09T06:30:23;100315.69;;;14.50;63.72
76011;BME280;64701;43.536;1.478;2023-10-09T06:32:52;100324.31;;;14.52;63.35
76011;BME280;64701;43.536;1.478;2023-10-09T06:35:33;100319.59;;;14.54;63.64
76011;BME280;64701;43.536;1.478;2023-10-09T06:37:59;100313.06;;;14.56;63.34
76011;BME280;64701;43.536;1.478;2023-10-09T06:40:33;100318.00;;;14.59;63.34
76011;BME280;64701;43.536;1.478;2023-10-09T06:43:20;100315.94;;;14.61;64.29
76011;BME280;64701;43.536;1.478;2023-10-09T06:45:46;100316.75;;;14.62;64.57
76011;BME280;64701;43.536;1.478;2023-10-09T06:48:19;100320.06;;;14.64;64.92
76011;BME280;64701;43.536;1.478;2023-10-09T06:51:06;100314.31;;;14.67;64.54
76011;BME280;64701;43.536;1.478;2023-10-09T06:53:51;100313.94;;;14.70;63.60
76011;BME280;64701;43.536;1.478;2023-10-09T06:56:22;100322.16;;;14.75;64.33
76011;BME280;64701;43.536;1.478;2023-10-09T06:59:00;100328.72;;;14.79;64.77
76011;BME280;64701;43.536;1.478;2023-10-09T07:01:46;100326.28;;;14.84;64.19
76011;BME280;64701;43.536;1.478;2023-10-09T07:04:14;100330.00;;;14.90;65.02
76011;BME280;64701;43.536;1.478;2023-10-09T07:06:55;100327.56;;;14.95;63.78
76011;BME280;64701;43.536;1.478;2023-10-09T07:09:22;100326.78;;;15.01;65.17
76011;BME280;64701;43.536;1.478;2023-10-09T07:11:48;100328.00;;;15.05;64.58
76011;BME280;64701;43.536;1.478;2023-10-09T07:14:14;100329.06;;;15.10;64.68
76011;BME280;64701;43.536;1.478;2023-10-09T07:16:55;100337.25;;;15.16;64.22
76011;BME280;64701;43.536;1.478;2023-10-09T07:19:25;100333.38;;;15.18;64.69
76011;BME280;64701;43.536;1.478;2023-10-09T07:22:11;100342.44;;;15.24;64.58
76011;BME280;64701;43.536;1.478;2023-10-09T07:24:48;100339.16;;;15.28;64.56
76011;BME280;64701;43.536;1.478;2023-10-09T07:27:32;100334.66;;;15.35;64.07
76011;BME280;64701;43.536;1.478;2023-10-09T07:30:17;100348.41;;;15.39;64.14
76011;BME280;64701;43.536;1.478;2023-10-09T07:35:20;100346.19;;;15.49;64.01
76011;BME280;64701;43.536;1.478;2023-10-09T07:38:18;100345.41;;;15.55;63.55
76011;BME280;64701;43.536;1.478;2023-10-09T07:41:00;100349.50;;;15.64;64.06
76011;BME280;64701;43.536;1.478;2023-10-09T07:46:10;100352.19;;;15.77;63.89
76011;BME280;64701;43.536;1.478;2023-10-09T07:48:57;100351.13;;;15.85;64.40
76011;BME280;64701;43.536;1.478;2023-10-09T07:51:22;100360.81;;;15.92;63.75
76011;BME280;64701;43.536;1.478;2023-10-09T07:53:50;100363.91;;;15.96;64.57
76011;BME280;64701;43.536;1.478;2023-10-09T07:56:22;100360.19;;;16.04;64.06
76011;BME280;64701;43.536;1.478;2023-10-09T07:58:48;100361.00;;;16.11;64.19
76011;BME280;64701;43.536;1.478;2023-10-09T08:01:14;100367.16;;;16.18;63.62
76011;BME280;64701;43.536;1.478;2023-10-09T08:04:00;100362.63;;;16.25;64.11
76011;BME280;64701;43.536;1.478;2023-10-09T08:06:45;100366.13;;;16.32;64.27
76011;BME280;64701;43.536;1.478;2023-10-09T08:09:12;100363.22;;;16.40;63.57
76011;BME280;64701;43.536;1.478;2023-10-09T08:11:38;100368.34;;;16.48;64.09
76011;BME280;64701;43.536;1.478;2023-10-09T08:14:06;100371.41;;;16.58;63.21
76011;BME280;64701;43.536;1.478;2023-10-09T08:16:50;100376.56;;;16.66;63.71
76011;BME280;64701;43.536;1.478;2023-10-09T08:19:31;100376.13;;;16.76;62.79
76011;BME280;64701;43.536;1.478;2023-10-09T08:21:59;100370.34;;;16.86;62.97
76011;BME280;64701;43.536;1.478;2023-10-09T08:25:02;100376.88;;;16.96;63.12
76011;BME280;64701;43.536;1.478;2023-10-09T08:27:28;100377.44;;;17.05;62.42
76011;BME280;64701;43.536;1.478;2023-10-09T08:30:04;100380.72;;;17.13;62.24
76011;BME280;64701;43.536;1.478;2023-10-09T08:32:48;100377.56;;;17.23;62.67
76011;BME280;64701;43.536;1.478;2023-10-09T08:35:35;100370.50;;;17.35;62.37
76011;BME280;64701;43.536;1.478;2023-10-09T08:38:12;100370.88;;;17.45;61.95
76011;BME280;64701;43.536;1.478;2023-10-09T08:40:38;100366.88;;;17.54;62.42
76011;BME280;64701;43.536;1.478;2023-10-09T08:45:37;100373.53;;;17.77;61.86
76011;BME280;64701;43.536;1.478;2023-10-09T08:48:04;100375.50;;;17.88;61.98
76011;BME280;64701;43.536;1.478;2023-10-09T08:50:30;100375.41;;;18.01;61.42
76011;BME280;64701;43.536;1.478;2023-10-09T08:52:55;100365.03;;;18.11;61.63
76011;BME280;64701;43.536;1.478;2023-10-09T08:55:21;100374.22;;;18.22;61.68
76011;BME280;64701;43.536;1.478;2023-10-09T08:57:46;100375.94;;;18.34;60.65
76011;BME280;64701;43.536;1.478;2023-10-09T09:00:18;100367.16;;;18.46;60.86
76011;BME280;64701;43.536;1.478;2023-10-09T09:02:58;100367.44;;;18.62;60.23
76011;BME280;64701;43.536;1.478;2023-10-09T09:05:25;100366.81;;;18.79;59.78
76011;BME280;64701;43.536;1.478;2023-10-09T09:07:53;100372.41;;;18.95;59.72
76011;BME280;64701;43.536;1.478;2023-10-09T09:10:26;100364.31;;;19.13;59.57
76011;BME280;64701;43.536;1.478;2023-10-09T09:13:00;100367.09;;;19.37;58.96
76011;BME280;64701;43.536;1.478;2023-10-09T09:15:29;100362.63;;;19.61;59.06
76011;BME280;64701;43.536;1.478;2023-10-09T09:18:07;100361.44;;;19.98;58.21
76011;BME280;64701;43.536;1.478;2023-10-09T09:20:36;100356.47;;;20.88;57.92
76011;BME280;64701;43.536;1.478;2023-10-09T09:23:10;100354.59;;;21.90;55.20
76011;BME280;64701;43.536;1.478;2023-10-09T09:25:43;100351.34;;;22.82;52.82
76011;BME280;64701;43.536;1.478;2023-10-09T09:28:09;100357.19;;;23.71;50.36
76011;BME280;64701;43.536;1.478;2023-10-09T09:30:38;100357.84;;;24.67;47.22
76011;BME280;64701;43.536;1.478;2023-10-09T09:33:39;100357.66;;;25.62;47.59
76011;BME280;64701;43.536;1.478;2023-10-09T09:36:08;100352.84;;;26.78;44.62
76011;BME280;64701;43.536;1.478;2023-10-09T09:38:36;100351.91;;;27.57;40.82
76011;BME280;64701;43.536;1.478;2023-10-09T09:41:07;100347.03;;;28.46;39.68
76011;BME280;64701;43.536;1.478;2023-10-09T09:43:32;100348.00;;;29.21;35.81
76011;BME280;64701;43.536;1.478;2023-10-09T09:46:00;100347.38;;;29.81;34.49
76011;BME280;64701;43.536;1.478;2023-10-09T09:48:29;100341.47;;;30.66;35.11
76011;BME280;64701;43.536;1.478;2023-10-09T09:50:57;100344.69;;;31.45;33.28
76011;BME280;64701;43.536;1.478;2023-10-09T09:53:22;100340.06;;;32.21;31.19
76011;BME280;64701;43.536;1.478;2023-10-09T09:55:52;100343.34;;;32.71;31.31
76011;BME280;64701;43.536;1.478;2023-10-09T09:58:25;100333.41;;;33.44;28.98
76011;BME280;64701;43.536;1.478;2023-10-09T10:00:59;100340.09;;;34.15;28.23
76011;BME280;64701;43.536;1.478;2023-10-09T10:03:34;100337.44;;;34.74;24.61
76011;BME280;64701;43.536;1.478;2023-10-09T10:06:01;100329.88;;;35.21;24.71
76011;BME280;64701;43.536;1.478;2023-10-09T10:08:34;100327.94;;;35.75;25.07
76011;BME280;64701;43.536;1.478;2023-10-09T10:11:00;100326.22;;;36.16;23.21
76011;BME280;64701;43.536;1.478;2023-10-09T10:16:10;100319.44;;;36.74;21.96
76011;BME280;64701;43.536;1.478;2023-10-09T10:21:32;100317.44;;;37.39;21.23
76011;BME280;64701;43.536;1.478;2023-10-09T10:24:00;100310.38;;;37.53;20.47
76011;BME280;64701;43.536;1.478;2023-10-09T10:26:34;100303.81;;;37.58;19.94
76011;BME280;64701;43.536;1.478;2023-10-09T10:29:16;100303.47;;;37.91;20.10
76011;BME280;64701;43.536;1.478;2023-10-09T10:32:05;100301.09;;;38.36;19.78
76011;BME280;64701;43.536;1.478;2023-10-09T10:37:21;100295.66;;;39.10;19.47
76011;BME280;64701;43.536;1.478;2023-10-09T10:39:52;100296.41;;;39.45;18.30
76011;BME280;64701;43.536;1.478;2023-10-09T10:42:24;100294.09;;;39.70;19.06
76011;BME280;64701;43.536;1.478;2023-10-09T10:45:01;100286.66;;;39.74;18.63
76011;BME280;64701;43.536;1.478;2023-10-09T10:47:49;100285.56;;;39.37;18.86
76011;BME280;64701;43.536;1.478;2023-10-09T10:50:17;100292.78;;;39.64;18.76
76011;BME280;64701;43.536;1.478;2023-10-09T10:53:06;100287.78;;;39.92;18.23
76011;BME280;64701;43.536;1.478;2023-10-09T10:55:38;100296.00;;;40.31;19.53
76011;BME280;64701;43.536;1.478;2023-10-09T10:58:16;100286.59;;;40.39;18.33
76011;BME280;64701;43.536;1.478;2023-10-09T11:00:55;100281.44;;;40.64;18.85
76011;BME280;64701;43.536;1.478;2023-10-09T11:03:23;100274.94;;;40.83;17.97
76011;BME280;64701;43.536;1.478;2023-10-09T11:06:00;100278.97;;;40.89;16.50
76011;BME280;64701;43.536;1.478;2023-10-09T11:08:46;100271.38;;;40.56;18.84
76011;BME280;64701;43.536;1.478;2023-10-09T11:11:24;100269.34;;;40.79;18.20
76011;BME280;64701;43.536;1.478;2023-10-09T11:14:07;100266.66;;;41.16;18.44
76011;BME280;64701;43.536;1.478;2023-10-09T11:16:32;100267.09;;;41.55;17.77
76011;BME280;64701;43.536;1.478;2023-10-09T11:19:14;100264.25;;;41.88;17.21
76011;BME280;64701;43.536;1.478;2023-10-09T11:22:10;100259.97;;;41.98;15.90
76011;BME280;64701;43.536;1.478;2023-10-09T11:24:35;100263.03;;;42.33;16.89
76011;BME280;64701;43.536;1.478;2023-10-09T11:27:02;100259.13;;;42.45;16.60
76011;BME280;64701;43.536;1.478;2023-10-09T11:29:31;100254.16;;;42.79;16.22
76011;BME280;64701;43.536;1.478;2023-10-09T11:32:09;100252.91;;;42.66;15.12
76011;BME280;64701;43.536;1.478;2023-10-09T11:34:43;100245.81;;;42.79;16.26
76011;BME280;64701;43.536;1.478;2023-10-09T11:37:17;100238.00;;;43.17;16.16
76011;BME280;64701;43.536;1.478;2023-10-09T11:39:58;100228.09;;;43.26;15.83
76011;BME280;64701;43.536;1.478;2023-10-09T11:42:24;100230.88;;;43.37;15.13
76011;BME280;64701;43.536;1.478;2023-10-09T11:45:19;100221.38;;;43.52;15.08
76011;BME280;64701;43.536;1.478;2023-10-09T11:47:47;100222.09;;;43.13;14.04
76011;BME280;64701;43.536;1.478;2023-10-09T11:50:41;100214.16;;;43.40;15.50
76011;BME280;64701;43.536;1.478;2023-10-09T11:53:08;100210.19;;;43.38;14.16
76011;BME280;64701;43.536;1.478;2023-10-09T11:55:37;100213.38;;;43.68;14.46
76011;BME280;64701;43.536;1.478;2023-10-09T11:58:03;100204.63;;;43.66;14.07
76011;BME280;64701;43.536;1.478;2023-10-09T12:00:30;100201.84;;;43.70;15.04
76011;BME280;64701;43.536;1.478;2023-10-09T12:02:55;100188.31;;;43.97;13.96
76011;BME280;64701;43.536;1.478;2023-10-09T12:05:21;100183.91;;;43.96;13.30
76011;BME280;64701;43.536;1.478;2023-10-09T12:07:48;100189.44;;;43.46;13.32
76011;BME280;64701;43.536;1.478;2023-10-09T12:10:21;100182.31;;;43.73;14.43
76011;BME280;64701;43.536;1.478;2023-10-09T12:12:53;100179.09;;;44.14;14.70
76011;BME280;64701;43.536;1.478;2023-10-09T12:15:19;100173.41;;;44.49;14.02
76011;BME280;64701;43.536;1.478;2023-10-09T12:17:45;100174.09;;;44.82;13.83
76011;BME280;64701;43.536;1.478;2023-10-09T12:20:15;100166.97;;;44.73;13.51
76011;BME280;64701;43.536;1.478;2023-10-09T12:22:59;100163.97;;;45.09;14.01
76011;BME280;64701;43.536;1.478;2023-10-09T12:25:25;100167.41;;;45.34;13.52
76011;BME280;64701;43.536;1.478;2023-10-09T12:27:50;100166.84;;;45.53;13.84
76011;BME280;64701;43.536;1.478;2023-10-09T12:30:19;100160.44;;;45.53;12.81
76011;BME280;64701;43.536;1.478;2023-10-09T12:32:51;100157.66;;;45.53;12.58
76011;BME280;64701;43.536;1.478;2023-10-09T12:35:17;100152.81;;;45.61;12.46
76011;BME280;64701;43.536;1.478;2023-10-09T12:37:43;100148.97;;;45.37;13.09
76011;BME280;64701;43.536;1.478;2023-10-09T12:40:08;100146.69;;;45.25;13.53
76011;BME280;64701;43.536;1.478;2023-10-09T12:42:35;100150.91;;;45.50;12.86
76011;BME280;64701;43.536;1.478;2023-10-09T12:45:01;100143.94;;;45.66;13.32
76011;BME280;64701;43.536;1.478;2023-10-09T12:47:33;100149.63;;;45.59;11.26
76011;BME280;64701;43.536;1.478;2023-10-09T12:49:58;100140.78;;;45.64;12.93
76011;BME280;64701;43.536;1.478;2023-10-09T12:52:24;100143.44;;;45.78;12.37
76011;BME280;64701;43.536;1.478;2023-10-09T12:54:54;100140.28;;;45.76;12.07
76011;BME280;64701;43.536;1.478;2023-10-09T12:57:20;100135.75;;;45.89;11.65
76011;BME280;64701;43.536;1.478;2023-10-09T12:59:45;100131.38;;;46.25;12.74
76011;BME280;64701;43.536;1.478;2023-10-09T13:02:16;100132.31;;;46.46;11.50
76011;BME280;64701;43.536;1.478;2023-10-09T13:04:53;100127.88;;;46.48;11.83
76011;BME280;64701;43.536;1.478;2023-10-09T13:07:18;100133.47;;;46.48;11.03
76011;BME280;64701;43.536;1.478;2023-10-09T13:09:47;100129.78;;;46.24;11.33
76011;BME280;64701;43.536;1.478;2023-10-09T13:12:32;100128.09;;;46.30;11.98
76011;BME280;64701;43.536;1.478;2023-10-09T13:14:57;100119.28;;;46.32;12.11
76011;BME280;64701;43.536;1.478;2023-10-09T13:17:23;100119.13;;;46.43;11.97
76011;BME280;64701;43.536;1.478;2023-10-09T13:19:52;100112.25;;;46.17;12.32
76011;BME280;64701;43.536;1.478;2023-10-09T13:22:17;100113.19;;;46.41;12.25
76011;BME280;64701;43.536;1.478;2023-10-09T13:24:42;100103.56;;;46.42;10.85
76011;BME280;64701;43.536;1.478;2023-10-09T13:27:07;100109.94;;;46.42;11.00
76011;BME280;64701;43.536;1.478;2023-10-09T13:29:35;100103.56;;;46.42;11.36
76011;BME280;64701;43.536;1.478;2023-10-09T13:32:04;100097.66;;;46.33;11.63
76011;BME280;64701;43.536;1.478;2023-10-09T13:34:38;100096.13;;;46.28;11.36
76011;BME280;64701;43.536;1.478;2023-10-09T13:37:09;100091.72;;;46.27;11.05
76011;BME280;64701;43.536;1.478;2023-10-09T13:39:39;100087.91;;;45.73;11.14
76011;BME280;64701;43.536;1.478;2023-10-09T13:42:06;100094.66;;;45.79;12.12
76011;BME280;64701;43.536;1.478;2023-10-09T13:44:32;100085.16;;;45.69;10.75